Burlington Township, New Jersey
Current Conditions -  °F | °C
As of 3:54 AM on Friday 28 Nov 2014 (Local Time) from KVAY Reporting Station
Broken Clouds Broken Clouds  
Wind Chill: 27°   Ceiling: 7500
Heat Index: 32°   Visibility: 10mi
Dew Point: 27°   Wind: 5mph
Humidity: 82%   Direction: 290°WNW
Pressure: 30.13"   Gusts: NA
Location:  40.0691°N, 74.8276°W
Report Text: KVAY 280854Z AUTO 29004KT 10SM FEW047 BKN075 00/M03 A3013 RMK AO2 SNB14E15 SLP202 P0000 60000 T00001028 50007
Loading
Personal Weather Stations






























Interactive Weather Map New forecast layout! Learn more

10-Day Weather Forecast

Advertisements
Track Severe Weather on mobile